QTR8799 VIDP-LEMD
Flight info
| Callsign | QTR8799 |
|---|---|
| Flight time | N/A |
| Altitude | 32000 |
| Route | OROTI7G OROTI A589 ASARI A466 SULOM T400 PS/N0499F310 P500 ATROL/N0495F320 P500 GERRY/N0499F310 P500 MOTMO/N0495F320 P500 FIRUZ/K0915F320 Z407 VAJEN Z767 DAROW L181 BUTRA Z407 USETU Z514 OGNOB Y92 BUPOR T388 POGON/N0492F320 A477 BABUM A909 TUGTA B701 LARGI N701 BAKUV/N0483F340 N701 LUSAL M11 REBLO UR317 TBN UW71 CRM DCT GOKPA UL746 INB UW90 DEVMU UL852 NEGEM DCT DOLAP DCT BAXON/N0478F350 DCT LUTOR DCT GEKBA DCT VAMTU DCT KOLON DCT GANGU DCT PADKO DCT DIVKO DCT NILDU DCT NENDA DCT BCN DCT ANTON DCT XIKEN DCT OSLAP N975 SALAS/N0492F310 DCT RAMON DCT NEXAS DCT DISVU N975 ADUXO |
| Aircraft | B77L/H-SDE1E2E3FGHIJ2J3J4J5M1RWXY/LB1D1 |
Departure
| Time | 2026-04-29 09:12 |
|---|---|
| Airport | Indira Gandhi International Airport (VIDP) |
Arrival
| Time | N/A |
|---|---|
| Airport | Adolfo Suárez Madrid–Barajas Airport (LEMD) |
| Time | Latitude | Longitude | Altitude | Speed | Heading |
|---|---|---|---|---|---|
| 2026-04-29 08:28 | 28.55813 | 77.09981 | 755 ft | 0 kts | 194° |
| 2026-04-29 08:57 | 28.55814 | 77.09981 | 755 ft | 1 kts | 194° |
| 2026-04-29 08:57 | 28.55837 | 77.09988 | 755 ft | 4 kts | 203° |
| 2026-04-29 08:57 | 28.55860 | 77.10002 | 755 ft | 4 kts | 220° |
| 2026-04-29 08:57 | 28.55877 | 77.10023 | 755 ft | 4 kts | 243° |
| 2026-04-29 08:58 | 28.55885 | 77.10050 | 755 ft | 4 kts | 266° |
| 2026-04-29 08:58 | 28.55884 | 77.10080 | 755 ft | 4 kts | 283° |
| 2026-04-29 08:58 | 28.55876 | 77.10109 | 755 ft | 4 kts | 288° |
| 2026-04-29 08:58 | 28.55875 | 77.10112 | 755 ft | 0 kts | 288° |
| 2026-04-29 09:02 | 28.55880 | 77.10095 | 755 ft | 6 kts | 286° |
| 2026-04-29 09:02 | 28.55891 | 77.10045 | 755 ft | 7 kts | 284° |
| 2026-04-29 09:02 | 28.55906 | 77.09976 | 755 ft | 13 kts | 284° |
| 2026-04-29 09:02 | 28.55933 | 77.09853 | 754 ft | 16 kts | 284° |
| 2026-04-29 09:03 | 28.55961 | 77.09727 | 754 ft | 16 kts | 284° |
| 2026-04-29 09:03 | 28.55989 | 77.09603 | 754 ft | 16 kts | 284° |
| 2026-04-29 09:03 | 28.56017 | 77.09477 | 754 ft | 16 kts | 284° |
| 2026-04-29 09:03 | 28.56047 | 77.09352 | 754 ft | 16 kts | 285° |
| 2026-04-29 09:04 | 28.56076 | 77.09228 | 754 ft | 16 kts | 285° |
| 2026-04-29 09:04 | 28.56106 | 77.09103 | 754 ft | 16 kts | 285° |
| 2026-04-29 09:04 | 28.56136 | 77.08977 | 753 ft | 16 kts | 285° |
| 2026-04-29 09:04 | 28.56166 | 77.08852 | 754 ft | 16 kts | 285° |
| 2026-04-29 09:05 | 28.56196 | 77.08727 | 754 ft | 16 kts | 285° |
| 2026-04-29 09:05 | 28.56226 | 77.08602 | 754 ft | 16 kts | 285° |
| 2026-04-29 09:05 | 28.56256 | 77.08479 | 754 ft | 16 kts | 285° |
| 2026-04-29 09:05 | 28.56286 | 77.08353 | 754 ft | 16 kts | 285° |
| 2026-04-29 09:06 | 28.56316 | 77.08228 | 754 ft | 16 kts | 285° |
| 2026-04-29 09:06 | 28.56340 | 77.08112 | 754 ft | 15 kts | 267° |
| 2026-04-29 09:06 | 28.56264 | 77.08047 | 754 ft | 15 kts | 195° |
| 2026-04-29 09:06 | 28.56165 | 77.08018 | 750 ft | 15 kts | 194° |
| 2026-04-29 09:07 | 28.56065 | 77.07989 | 754 ft | 15 kts | 194° |
| 2026-04-29 09:07 | 28.55966 | 77.07960 | 755 ft | 15 kts | 194° |
| 2026-04-29 09:07 | 28.55868 | 77.07932 | 755 ft | 15 kts | 194° |
| 2026-04-29 09:07 | 28.55769 | 77.07903 | 750 ft | 15 kts | 194° |
| 2026-04-29 09:08 | 28.55670 | 77.07875 | 755 ft | 15 kts | 194° |
| 2026-04-29 09:08 | 28.55570 | 77.07846 | 755 ft | 15 kts | 194° |
| 2026-04-29 09:08 | 28.55473 | 77.07818 | 755 ft | 15 kts | 194° |
| 2026-04-29 09:08 | 28.55374 | 77.07789 | 755 ft | 15 kts | 194° |
| 2026-04-29 09:09 | 28.55274 | 77.07760 | 755 ft | 15 kts | 194° |
| 2026-04-29 09:09 | 28.55178 | 77.07729 | 755 ft | 14 kts | 207° |
| 2026-04-29 09:09 | 28.55159 | 77.07633 | 755 ft | 14 kts | 282° |
| 2026-04-29 09:09 | 28.55183 | 77.07528 | 755 ft | 14 kts | 285° |
| 2026-04-29 09:10 | 28.55208 | 77.07422 | 755 ft | 14 kts | 285° |
| 2026-04-29 09:10 | 28.55232 | 77.07314 | 755 ft | 13 kts | 276° |
| 2026-04-29 09:10 | 28.55170 | 77.07250 | 755 ft | 14 kts | 191° |
| 2026-04-29 09:10 | 28.55070 | 77.07227 | 756 ft | 16 kts | 191° |
| 2026-04-29 09:11 | 28.54976 | 77.07203 | 755 ft | 11 kts | 194° |
| 2026-04-29 09:11 | 28.54928 | 77.07222 | 755 ft | 8 kts | 119° |
| 2026-04-29 09:11 | 28.54911 | 77.07294 | 756 ft | 15 kts | 104° |
| 2026-04-29 09:11 | 28.54848 | 77.07592 | 756 ft | 74 kts | 104° |
| 2026-04-29 09:12 | 28.54667 | 77.08431 | 755 ft | 145 kts | 104° |
| 2026-04-29 09:12 | 28.54374 | 77.09784 | 784 ft | 200 kts | 104° |
| 2026-04-29 09:12 | 28.54025 | 77.11330 | 1359 ft | 200 kts | 104° |
| 2026-04-29 09:12 | 28.53648 | 77.12868 | 2006 ft | 200 kts | 112° |
| 2026-04-29 09:13 | 28.52736 | 77.14058 | 2431 ft | 209 kts | 153° |
| 2026-04-29 09:13 | 28.51272 | 77.14311 | 2561 ft | 226 kts | 189° |
| 2026-04-29 09:13 | 28.49677 | 77.13923 | 2757 ft | 244 kts | 192° |
| 2026-04-29 09:13 | 28.47964 | 77.13469 | 3087 ft | 259 kts | 193° |
| 2026-04-29 09:14 | 28.46156 | 77.12983 | 3469 ft | 272 kts | 193° |
| 2026-04-29 09:14 | 28.44284 | 77.12493 | 3989 ft | 279 kts | 193° |
| 2026-04-29 09:14 | 28.42393 | 77.12006 | 4626 ft | 282 kts | 193° |
| 2026-04-29 09:14 | 28.40462 | 77.11559 | 5239 ft | 284 kts | 193° |
| 2026-04-29 09:15 | 28.38526 | 77.11060 | 5896 ft | 285 kts | 194° |
| 2026-04-29 09:15 | 28.36613 | 77.10565 | 6556 ft | 287 kts | 193° |
| 2026-04-29 09:15 | 28.34677 | 77.09990 | 7064 ft | 287 kts | 205° |
| 2026-04-29 09:15 | 28.33131 | 77.08597 | 7601 ft | 288 kts | 237° |
| 2026-04-29 09:16 | 28.32411 | 77.06493 | 8197 ft | 288 kts | 264° |
| 2026-04-29 09:16 | 28.32515 | 77.04221 | 8793 ft | 290 kts | 282° |
| 2026-04-29 09:16 | 28.33000 | 77.01975 | 9294 ft | 296 kts | 284° |
| 2026-04-29 09:16 | 28.33529 | 76.99726 | 9890 ft | 298 kts | 284° |
| 2026-04-29 09:17 | 28.34081 | 76.97408 | 10216 ft | 313 kts | 284° |
| 2026-04-29 09:17 | 28.34665 | 76.94940 | 10379 ft | 333 kts | 284° |
| 2026-04-29 09:17 | 28.35273 | 76.92313 | 10541 ft | 353 kts | 284° |
| 2026-04-29 09:17 | 28.35896 | 76.89587 | 10764 ft | 369 kts | 284° |
| 2026-04-29 09:18 | 28.36546 | 76.86729 | 11219 ft | 378 kts | 284° |
| 2026-04-29 09:18 | 28.37205 | 76.83823 | 11855 ft | 382 kts | 284° |
| 2026-04-29 09:18 | 28.38037 | 76.80935 | 12489 ft | 385 kts | 291° |
| 2026-04-29 09:18 | 28.39121 | 76.78137 | 13199 ft | 386 kts | 294° |
| 2026-04-29 09:19 | 28.40260 | 76.75410 | 13928 ft | 386 kts | 295° |
| 2026-04-29 09:19 | 28.41417 | 76.72647 | 14585 ft | 389 kts | 294° |
| 2026-04-29 09:19 | 28.42568 | 76.69858 | 15224 ft | 391 kts | 294° |
| 2026-04-29 09:19 | 28.43704 | 76.67046 | 15865 ft | 392 kts | 294° |
| 2026-04-29 09:20 | 28.44831 | 76.64210 | 16493 ft | 394 kts | 293° |
| 2026-04-29 09:20 | 28.45955 | 76.61359 | 17107 ft | 396 kts | 293° |
| 2026-04-29 09:20 | 28.47083 | 76.58479 | 17717 ft | 398 kts | 293° |
| 2026-04-29 09:20 | 28.48211 | 76.55596 | 18321 ft | 399 kts | 293° |
| 2026-04-29 09:21 | 28.49333 | 76.52730 | 18850 ft | 402 kts | 293° |
| 2026-04-29 09:21 | 28.50482 | 76.49796 | 19314 ft | 407 kts | 293° |
| 2026-04-29 09:21 | 28.51640 | 76.46836 | 19740 ft | 411 kts | 293° |
| 2026-04-29 09:21 | 28.52815 | 76.43854 | 20219 ft | 414 kts | 294° |
| 2026-04-29 09:22 | 28.54014 | 76.40860 | 20722 ft | 416 kts | 294° |
| 2026-04-29 09:22 | 28.55217 | 76.37870 | 21137 ft | 420 kts | 294° |
| 2026-04-29 09:22 | 28.56441 | 76.34831 | 21540 ft | 424 kts | 294° |
| 2026-04-29 09:22 | 28.57675 | 76.31759 | 21973 ft | 427 kts | 294° |
| 2026-04-29 09:23 | 28.58914 | 76.28666 | 22410 ft | 430 kts | 294° |
| 2026-04-29 09:23 | 28.60145 | 76.25589 | 22803 ft | 432 kts | 294° |
| 2026-04-29 09:23 | 28.61392 | 76.22464 | 23182 ft | 436 kts | 294° |
| 2026-04-29 09:23 | 28.62652 | 76.19307 | 23549 ft | 439 kts | 294° |
| 2026-04-29 09:24 | 28.63920 | 76.16128 | 23894 ft | 442 kts | 294° |
| 2026-04-29 09:24 | 28.65196 | 76.12927 | 24250 ft | 445 kts | 294° |
| 2026-04-29 09:24 | 28.66482 | 76.09699 | 24608 ft | 447 kts | 294° |
| 2026-04-29 09:24 | 28.67769 | 76.06460 | 24960 ft | 450 kts | 294° |
| 2026-04-29 09:25 | 28.69047 | 76.03241 | 25290 ft | 453 kts | 293° |
| 2026-04-29 09:25 | 28.70348 | 75.99964 | 25637 ft | 455 kts | 293° |
| 2026-04-29 09:25 | 28.71659 | 75.96658 | 26005 ft | 457 kts | 293° |
| 2026-04-29 09:25 | 28.72969 | 75.93353 | 26421 ft | 458 kts | 293° |
| 2026-04-29 09:26 | 28.74353 | 75.90123 | 26708 ft | 459 kts | 301° |
| 2026-04-29 09:26 | 28.76376 | 75.87264 | 26880 ft | 468 kts | 316° |
| 2026-04-29 09:26 | 28.79036 | 75.85080 | 27150 ft | 471 kts | 326° |
| 2026-04-29 09:26 | 28.81857 | 75.83151 | 27408 ft | 474 kts | 327° |
| 2026-04-29 09:27 | 28.84696 | 75.81199 | 27712 ft | 477 kts | 326° |
| 2026-04-29 09:27 | 28.87540 | 75.79218 | 28019 ft | 479 kts | 326° |
| 2026-04-29 09:27 | 28.90351 | 75.77234 | 28329 ft | 481 kts | 326° |
| 2026-04-29 09:27 | 28.93209 | 75.75195 | 28632 ft | 483 kts | 326° |
| 2026-04-29 09:28 | 28.96061 | 75.73149 | 28916 ft | 485 kts | 325° |
| 2026-04-29 09:28 | 28.98892 | 75.71112 | 29181 ft | 487 kts | 325° |
| 2026-04-29 09:28 | 29.01768 | 75.69040 | 29440 ft | 489 kts | 325° |
| 2026-04-29 09:28 | 29.04655 | 75.66961 | 29755 ft | 489 kts | 326° |
| 2026-04-29 09:29 | 29.07532 | 75.64891 | 30117 ft | 488 kts | 326° |
| 2026-04-29 09:29 | 29.13268 | 75.60758 | 30932 ft | 484 kts | 325° |
| 2026-04-29 09:29 | 29.16081 | 75.58730 | 31320 ft | 482 kts | 325° |
| 2026-04-29 09:30 | 29.18918 | 75.56684 | 31641 ft | 481 kts | 325° |
| 2026-04-29 09:30 | 29.21770 | 75.54622 | 31662 ft | 482 kts | 325° |
| 2026-04-29 09:30 | 29.27331 | 75.50395 | 31702 ft | 479 kts | 316° |
| 2026-04-29 09:31 | 29.29542 | 75.47566 | 31712 ft | 477 kts | 301° |
| 2026-04-29 09:31 | 29.31140 | 75.44277 | 31717 ft | 470 kts | 300° |
| 2026-04-29 09:31 | 29.33234 | 75.41374 | 31706 ft | 477 kts | 319° |
| 2026-04-29 09:31 | 29.36118 | 75.39429 | 31717 ft | 486 kts | 338° |
| 2026-04-29 09:32 | 29.39414 | 75.38629 | 31727 ft | 492 kts | 353° |
| 2026-04-29 09:32 | 29.42841 | 75.38291 | 31715 ft | 493 kts | 351° |
| 2026-04-29 09:32 | 29.49681 | 75.37288 | 31712 ft | 494 kts | 349° |
| 2026-04-29 09:33 | 29.56464 | 75.36149 | 31710 ft | 493 kts | 349° |
| 2026-04-29 09:33 | 29.63256 | 75.35020 | 31714 ft | 493 kts | 349° |
| 2026-04-29 09:34 | 29.70023 | 75.33915 | 31712 ft | 494 kts | 349° |
| 2026-04-29 09:34 | 29.76849 | 75.32818 | 31713 ft | 494 kts | 349° |
| 2026-04-29 09:35 | 29.83667 | 75.31716 | 31713 ft | 495 kts | 349° |
| 2026-04-29 09:35 | 29.90493 | 75.30613 | 31712 ft | 495 kts | 349° |
| 2026-04-29 09:36 | 29.97277 | 75.29514 | 31712 ft | 494 kts | 349° |
| 2026-04-29 09:36 | 30.04114 | 75.28401 | 31711 ft | 495 kts | 349° |
| 2026-04-29 09:37 | 30.10910 | 75.27296 | 31715 ft | 495 kts | 349° |
| 2026-04-29 09:37 | 30.17746 | 75.26181 | 31724 ft | 495 kts | 349° |
| 2026-04-29 09:38 | 30.24539 | 75.25073 | 31720 ft | 495 kts | 349° |
| 2026-04-29 09:38 | 30.31370 | 75.23959 | 31722 ft | 495 kts | 349° |
| 2026-04-29 09:39 | 30.38195 | 75.22842 | 31722 ft | 494 kts | 349° |
| 2026-04-29 09:39 | 30.44990 | 75.21730 | 31720 ft | 494 kts | 349° |
| 2026-04-29 09:40 | 30.51818 | 75.20607 | 31720 ft | 494 kts | 349° |
| 2026-04-29 09:40 | 30.58594 | 75.19494 | 31722 ft | 494 kts | 349° |
| 2026-04-29 09:41 | 30.65413 | 75.18373 | 31721 ft | 494 kts | 349° |
| 2026-04-29 09:41 | 30.72196 | 75.17255 | 31724 ft | 493 kts | 349° |
| 2026-04-29 09:42 | 30.78861 | 75.15532 | 31717 ft | 488 kts | 335° |
| 2026-04-29 09:42 | 30.84625 | 75.11551 | 31721 ft | 483 kts | 317° |
| 2026-04-29 09:43 | 30.89514 | 75.06192 | 31719 ft | 482 kts | 314° |
| 2026-04-29 09:43 | 30.94337 | 75.00794 | 31735 ft | 482 kts | 315° |
| 2026-04-29 09:44 | 30.99224 | 74.95413 | 31727 ft | 482 kts | 315° |
| 2026-04-29 09:44 | 31.04094 | 74.90096 | 31733 ft | 482 kts | 315° |
| 2026-04-29 09:45 | 31.08995 | 74.84738 | 31733 ft | 482 kts | 315° |
| 2026-04-29 09:45 | 31.13884 | 74.79384 | 31721 ft | 481 kts | 315° |
| 2026-04-29 09:46 | 31.18741 | 74.74056 | 31721 ft | 481 kts | 315° |
| 2026-04-29 09:46 | 31.22803 | 74.69596 | 31722 ft | 481 kts | 315° |
| 2026-04-29 09:47 | 31.27685 | 74.64223 | 31722 ft | 482 kts | 315° |
| 2026-04-29 09:47 | 31.32586 | 74.58825 | 31721 ft | 482 kts | 315° |
| 2026-04-29 09:48 | 31.37588 | 74.53652 | 31721 ft | 481 kts | 319° |
| 2026-04-29 09:48 | 31.42780 | 74.48736 | 31722 ft | 482 kts | 320° |
| 2026-04-29 09:49 | 31.47996 | 74.43760 | 31721 ft | 482 kts | 319° |
| 2026-04-29 09:49 | 31.53180 | 74.38787 | 31720 ft | 482 kts | 320° |
| 2026-04-29 09:50 | 31.58461 | 74.33929 | 31723 ft | 482 kts | 321° |
| 2026-04-29 09:50 | 31.63729 | 74.29135 | 31722 ft | 482 kts | 321° |
| 2026-04-29 09:51 | 31.69022 | 74.24277 | 31724 ft | 482 kts | 320° |
| 2026-04-29 09:51 | 31.74286 | 74.19425 | 31718 ft | 482 kts | 320° |
| 2026-04-29 09:52 | 31.79560 | 74.14555 | 31732 ft | 481 kts | 320° |
| 2026-04-29 09:52 | 31.84836 | 74.09678 | 31735 ft | 481 kts | 320° |
| 2026-04-29 09:53 | 31.90128 | 74.04901 | 31738 ft | 482 kts | 321° |
| 2026-04-29 09:53 | 31.95465 | 74.00161 | 31740 ft | 482 kts | 321° |
| 2026-04-29 09:54 | 32.00816 | 73.95390 | 31742 ft | 481 kts | 321° |
| 2026-04-29 09:54 | 32.06132 | 73.90623 | 31751 ft | 481 kts | 321° |
| 2026-04-29 09:55 | 32.11470 | 73.85821 | 31750 ft | 482 kts | 321° |
| 2026-04-29 09:55 | 32.16778 | 73.81045 | 31752 ft | 481 kts | 321° |
| 2026-04-29 09:56 | 32.22109 | 73.76242 | 31760 ft | 481 kts | 321° |
| 2026-04-29 09:56 | 32.27449 | 73.71418 | 31758 ft | 482 kts | 321° |
| 2026-04-29 09:57 | 32.32754 | 73.66619 | 31757 ft | 483 kts | 321° |
| 2026-04-29 09:57 | 32.38107 | 73.61774 | 31759 ft | 483 kts | 321° |
| 2026-04-29 09:58 | 32.43416 | 73.56957 | 31759 ft | 482 kts | 321° |
| 2026-04-29 09:58 | 32.48730 | 73.52134 | 31762 ft | 482 kts | 321° |
| 2026-04-29 09:59 | 32.54071 | 73.47277 | 31759 ft | 482 kts | 321° |
| 2026-04-29 09:59 | 32.59370 | 73.42442 | 31761 ft | 482 kts | 321° |
| 2026-04-29 10:00 | 32.64703 | 73.37580 | 31770 ft | 482 kts | 321° |
| 2026-04-29 10:00 | 32.69997 | 73.32741 | 31767 ft | 482 kts | 321° |
| 2026-04-29 10:01 | 32.75368 | 73.27932 | 31771 ft | 483 kts | 325° |
| 2026-04-29 10:01 | 32.81275 | 73.24077 | 31790 ft | 486 kts | 335° |
| 2026-04-29 10:02 | 32.87451 | 73.20911 | 31809 ft | 486 kts | 335° |
| 2026-04-29 10:02 | 32.93681 | 73.17701 | 31803 ft | 486 kts | 335° |
| 2026-04-29 10:03 | 32.99860 | 73.14471 | 31801 ft | 486 kts | 335° |
| 2026-04-29 10:03 | 33.06066 | 73.11207 | 31794 ft | 486 kts | 334° |
| 2026-04-29 10:04 | 33.12232 | 73.07953 | 31799 ft | 486 kts | 334° |
| 2026-04-29 10:04 | 33.18434 | 73.04683 | 31796 ft | 486 kts | 334° |
| 2026-04-29 10:05 | 33.24583 | 73.01430 | 31791 ft | 486 kts | 334° |
| 2026-04-29 10:05 | 33.30784 | 72.98147 | 31785 ft | 486 kts | 334° |
| 2026-04-29 10:06 | 33.36978 | 72.94862 | 31783 ft | 487 kts | 335° |
| 2026-04-29 10:06 | 33.43151 | 72.91588 | 31776 ft | 487 kts | 335° |
| 2026-04-29 10:07 | 33.49226 | 72.88026 | 31766 ft | 482 kts | 321° |
| 2026-04-29 10:07 | 33.51625 | 72.85214 | 31784 ft | 481 kts | 305° |
| 2026-04-29 10:07 | 33.53290 | 72.81745 | 31789 ft | 481 kts | 292° |
| 2026-04-29 10:08 | 33.54322 | 72.77984 | 31765 ft | 482 kts | 281° |
| 2026-04-29 10:08 | 33.54607 | 72.73992 | 31784 ft | 481 kts | 270° |
| 2026-04-29 10:08 | 33.54477 | 72.65939 | 31780 ft | 483 kts | 269° |
| 2026-04-29 10:09 | 33.54333 | 72.57932 | 31775 ft | 481 kts | 270° |
| 2026-04-29 10:09 | 33.54265 | 72.49900 | 31767 ft | 481 kts | 270° |
| 2026-04-29 10:10 | 33.54228 | 72.41910 | 31772 ft | 481 kts | 270° |
| 2026-04-29 10:10 | 33.54187 | 72.33876 | 31763 ft | 481 kts | 270° |
| 2026-04-29 10:11 | 33.54133 | 72.25854 | 31758 ft | 481 kts | 270° |
| 2026-04-29 10:11 | 33.54368 | 72.21886 | 31731 ft | 477 kts | 284° |
| 2026-04-29 10:11 | 33.55598 | 72.18196 | 31756 ft | 478 kts | 302° |
| 2026-04-29 10:12 | 33.57684 | 72.15140 | 31754 ft | 480 kts | 317° |
| 2026-04-29 10:12 | 33.60349 | 72.12709 | 31763 ft | 482 kts | 327° |
| 2026-04-29 10:12 | 33.63323 | 72.10830 | 31743 ft | 484 kts | 338° |
| 2026-04-29 10:12 | 33.66585 | 72.09840 | 31755 ft | 484 kts | 350° |
| 2026-04-29 10:13 | 33.73337 | 72.08901 | 31751 ft | 488 kts | 352° |
| 2026-04-29 10:13 | 33.80065 | 72.08065 | 31746 ft | 487 kts | 352° |
| 2026-04-29 10:14 | 33.86808 | 72.07126 | 31744 ft | 486 kts | 351° |
| 2026-04-29 10:14 | 33.93478 | 72.06119 | 31748 ft | 486 kts | 351° |
| 2026-04-29 10:15 | 34.00229 | 72.05079 | 31743 ft | 487 kts | 351° |
| 2026-04-29 10:15 | 34.06926 | 72.04055 | 31733 ft | 486 kts | 351° |
| 2026-04-29 10:16 | 34.12523 | 72.03196 | 31730 ft | 486 kts | 351° |
| 2026-04-29 10:16 | 34.20349 | 72.01996 | 31731 ft | 486 kts | 351° |
| 2026-04-29 10:17 | 34.27038 | 72.00969 | 31734 ft | 487 kts | 351° |
| 2026-04-29 10:17 | 34.33768 | 71.99935 | 31733 ft | 487 kts | 351° |
| 2026-04-29 10:18 | 34.40511 | 71.98897 | 31729 ft | 487 kts | 351° |
| 2026-04-29 10:18 | 34.47237 | 71.97861 | 31730 ft | 487 kts | 351° |
| 2026-04-29 10:19 | 34.53921 | 71.96830 | 31743 ft | 488 kts | 351° |
| 2026-04-29 10:19 | 34.60661 | 71.95784 | 31741 ft | 488 kts | 351° |
| 2026-04-29 10:20 | 34.67420 | 71.94736 | 31736 ft | 489 kts | 351° |
| 2026-04-29 10:20 | 34.74150 | 71.93692 | 31744 ft | 489 kts | 351° |
| 2026-04-29 10:21 | 34.80907 | 71.92642 | 31742 ft | 490 kts | 351° |
| 2026-04-29 10:21 | 34.87666 | 71.91589 | 31750 ft | 490 kts | 351° |
| 2026-04-29 10:22 | 34.94445 | 71.90533 | 31753 ft | 490 kts | 351° |
| 2026-04-29 10:22 | 35.01216 | 71.89474 | 31752 ft | 491 kts | 351° |
| 2026-04-29 10:23 | 35.08002 | 71.88413 | 31755 ft | 491 kts | 351° |
| 2026-04-29 10:23 | 35.14748 | 71.87351 | 31761 ft | 492 kts | 351° |
| 2026-04-29 10:24 | 35.21552 | 71.86287 | 31754 ft | 492 kts | 351° |
| 2026-04-29 10:24 | 35.28343 | 71.85218 | 31768 ft | 492 kts | 351° |
| 2026-04-29 10:25 | 35.35156 | 71.84142 | 31764 ft | 493 kts | 351° |
| 2026-04-29 10:25 | 35.41968 | 71.83069 | 31770 ft | 493 kts | 352° |
| 2026-04-29 10:26 | 35.48735 | 71.82001 | 31787 ft | 493 kts | 352° |
| 2026-04-29 10:26 | 35.55566 | 71.80918 | 31777 ft | 494 kts | 352° |
| 2026-04-29 10:27 | 35.65802 | 71.79291 | 31798 ft | 494 kts | 352° |
| 2026-04-29 10:28 | 35.72590 | 71.78210 | 31798 ft | 495 kts | 352° |
| 2026-04-29 10:28 | 35.79415 | 71.77125 | 31791 ft | 494 kts | 352° |
| 2026-04-29 10:29 | 35.86247 | 71.76036 | 31802 ft | 495 kts | 352° |
| 2026-04-29 10:29 | 35.93082 | 71.74944 | 31807 ft | 495 kts | 352° |
| 2026-04-29 10:30 | 35.99913 | 71.73850 | 31817 ft | 495 kts | 352° |
| 2026-04-29 10:30 | 36.06746 | 71.72753 | 31814 ft | 495 kts | 352° |
| 2026-04-29 10:31 | 36.13574 | 71.71654 | 31825 ft | 495 kts | 352° |
| 2026-04-29 10:31 | 36.20368 | 71.70561 | 31823 ft | 495 kts | 352° |
| 2026-04-29 10:32 | 36.27210 | 71.69459 | 31841 ft | 495 kts | 352° |
| 2026-04-29 10:32 | 36.34048 | 71.68352 | 31835 ft | 495 kts | 352° |
| 2026-04-29 10:33 | 36.39725 | 71.67433 | 31837 ft | 494 kts | 352° |
| 2026-04-29 10:33 | 36.47653 | 71.66147 | 31862 ft | 494 kts | 352° |
| 2026-04-29 10:34 | 36.54477 | 71.65040 | 31860 ft | 495 kts | 351° |
| 2026-04-29 10:34 | 36.60196 | 71.64110 | 31853 ft | 494 kts | 351° |
| 2026-04-29 10:35 | 36.67024 | 71.63039 | 31857 ft | 495 kts | 354° |
| 2026-04-29 10:35 | 36.73876 | 71.62891 | 31875 ft | 495 kts | 359° |
| 2026-04-29 10:36 | 36.80793 | 71.62978 | 31877 ft | 496 kts | 359° |
| 2026-04-29 10:36 | 36.87698 | 71.63036 | 31876 ft | 496 kts | 359° |
| 2026-04-29 10:37 | 36.94589 | 71.63060 | 31887 ft | 495 kts | 359° |
| 2026-04-29 10:37 | 37.01452 | 71.63071 | 31884 ft | 496 kts | 359° |
| 2026-04-29 10:38 | 37.08359 | 71.63082 | 31901 ft | 496 kts | 359° |
| 2026-04-29 10:38 | 37.15262 | 71.63095 | 31896 ft | 496 kts | 359° |
| 2026-04-29 10:39 | 37.22161 | 71.63108 | 31899 ft | 496 kts | 359° |
| 2026-04-29 10:39 | 37.29075 | 71.63121 | 31899 ft | 496 kts | 359° |
| 2026-04-29 10:40 | 37.35973 | 71.63133 | 31903 ft | 496 kts | 359° |
| 2026-04-29 10:40 | 37.42838 | 71.63149 | 31908 ft | 496 kts | 359° |
| 2026-04-29 10:41 | 37.49751 | 71.63164 | 31914 ft | 496 kts | 359° |
| 2026-04-29 10:41 | 37.56663 | 71.63174 | 31913 ft | 496 kts | 359° |
| 2026-04-29 10:42 | 37.63562 | 71.63191 | 31917 ft | 496 kts | 359° |
| 2026-04-29 10:42 | 37.70448 | 71.63205 | 31927 ft | 496 kts | 359° |
| 2026-04-29 10:43 | 37.77354 | 71.63217 | 31925 ft | 496 kts | 359° |
| 2026-04-29 10:43 | 37.84267 | 71.63229 | 31917 ft | 496 kts | 359° |
| 2026-04-29 10:44 | 37.91166 | 71.63240 | 31914 ft | 496 kts | 359° |
| 2026-04-29 10:44 | 37.98076 | 71.63257 | 31914 ft | 496 kts | 359° |
| 2026-04-29 10:45 | 38.04982 | 71.63270 | 31912 ft | 496 kts | 359° |
| 2026-04-29 10:45 | 38.11844 | 71.63286 | 31922 ft | 495 kts | 359° |
| 2026-04-29 10:46 | 38.18530 | 71.61826 | 31932 ft | 490 kts | 332° |
| 2026-04-29 10:46 | 38.21390 | 71.59486 | 31938 ft | 489 kts | 318° |
| 2026-04-29 10:46 | 38.23705 | 71.56324 | 31921 ft | 486 kts | 306° |
| 2026-04-29 10:47 | 38.27662 | 71.49410 | 31939 ft | 486 kts | 305° |
| 2026-04-29 10:47 | 38.31655 | 71.42456 | 31913 ft | 486 kts | 306° |
| 2026-04-29 10:48 | 38.35692 | 71.35547 | 31920 ft | 484 kts | 306° |
| 2026-04-29 10:48 | 38.39730 | 71.28677 | 31921 ft | 485 kts | 306° |
| 2026-04-29 10:49 | 38.43773 | 71.21787 | 31925 ft | 484 kts | 306° |
| 2026-04-29 10:49 | 38.47773 | 71.14948 | 31926 ft | 483 kts | 306° |
| 2026-04-29 10:50 | 38.51799 | 71.08063 | 31922 ft | 483 kts | 306° |
| 2026-04-29 10:50 | 38.55810 | 71.01179 | 31929 ft | 482 kts | 306° |
| 2026-04-29 10:51 | 38.59811 | 70.94293 | 31926 ft | 482 kts | 306° |
| 2026-04-29 10:51 | 38.63782 | 70.87447 | 31933 ft | 482 kts | 306° |
| 2026-04-29 10:52 | 38.67769 | 70.80563 | 31923 ft | 481 kts | 305° |
| 2026-04-29 10:52 | 38.71749 | 70.73666 | 31921 ft | 481 kts | 305° |
| 2026-04-29 10:53 | 38.75719 | 70.66762 | 31929 ft | 481 kts | 303° |
| 2026-04-29 10:53 | 38.78869 | 70.59221 | 31930 ft | 480 kts | 291° |
| 2026-04-29 10:54 | 38.80855 | 70.51080 | 31925 ft | 478 kts | 283° |
| 2026-04-29 10:54 | 38.82407 | 70.42795 | 31932 ft | 478 kts | 283° |
| 2026-04-29 10:55 | 38.83946 | 70.34551 | 31933 ft | 478 kts | 283° |
| 2026-04-29 10:55 | 38.85525 | 70.26236 | 31923 ft | 478 kts | 283° |
| 2026-04-29 10:56 | 38.87111 | 70.17960 | 31917 ft | 478 kts | 283° |
| 2026-04-29 10:56 | 38.88690 | 70.09680 | 31923 ft | 478 kts | 283° |
| 2026-04-29 10:57 | 38.90263 | 70.01390 | 31923 ft | 478 kts | 283° |
| 2026-04-29 10:57 | 38.91821 | 69.93144 | 31922 ft | 477 kts | 283° |
| 2026-04-29 10:58 | 38.93382 | 69.84848 | 31930 ft | 477 kts | 283° |
| 2026-04-29 10:58 | 38.94932 | 69.76567 | 31917 ft | 477 kts | 283° |
| 2026-04-29 10:59 | 38.96481 | 69.68284 | 31934 ft | 477 kts | 283° |
| 2026-04-29 10:59 | 38.98018 | 69.59992 | 31949 ft | 477 kts | 283° |
| 2026-04-29 11:00 | 38.99544 | 69.51733 | 31927 ft | 477 kts | 283° |
| 2026-04-29 11:00 | 39.01073 | 69.43431 | 31943 ft | 477 kts | 283° |
| 2026-04-29 11:01 | 39.02595 | 69.35131 | 31929 ft | 477 kts | 283° |
| 2026-04-29 11:01 | 39.04111 | 69.26825 | 31946 ft | 477 kts | 283° |
| 2026-04-29 11:02 | 39.05624 | 69.18514 | 31945 ft | 477 kts | 282° |
| 2026-04-29 11:02 | 39.07119 | 69.10250 | 31939 ft | 477 kts | 282° |
| 2026-04-29 11:03 | 39.08621 | 69.01923 | 31927 ft | 477 kts | 282° |
| 2026-04-29 11:03 | 39.10116 | 68.93590 | 31927 ft | 477 kts | 282° |
| 2026-04-29 11:04 | 39.11605 | 68.85251 | 31947 ft | 477 kts | 282° |
| 2026-04-29 11:04 | 39.13089 | 68.76918 | 31929 ft | 477 kts | 282° |
| 2026-04-29 11:05 | 39.14558 | 68.68624 | 31932 ft | 477 kts | 282° |
| 2026-04-29 11:05 | 39.16026 | 68.60287 | 31928 ft | 478 kts | 282° |
| 2026-04-29 11:06 | 39.17490 | 68.51939 | 31926 ft | 477 kts | 282° |
| 2026-04-29 11:06 | 39.18945 | 68.43603 | 31926 ft | 476 kts | 282° |
| 2026-04-29 11:07 | 39.20399 | 68.35260 | 31931 ft | 477 kts | 282° |
| 2026-04-29 11:07 | 39.21842 | 68.26913 | 31923 ft | 476 kts | 282° |
| 2026-04-29 11:08 | 39.23282 | 68.18563 | 31936 ft | 477 kts | 281° |
| 2026-04-29 11:08 | 39.24716 | 68.10199 | 31931 ft | 477 kts | 281° |
| 2026-04-29 11:09 | 39.26136 | 68.01891 | 31944 ft | 477 kts | 281° |
| 2026-04-29 11:09 | 39.27562 | 67.93511 | 31927 ft | 477 kts | 281° |
| 2026-04-29 11:10 | 39.28983 | 67.85118 | 31936 ft | 478 kts | 281° |
| 2026-04-29 11:10 | 39.30395 | 67.76724 | 31935 ft | 478 kts | 281° |
| 2026-04-29 11:11 | 39.31794 | 67.68388 | 31940 ft | 478 kts | 281° |
| 2026-04-29 11:11 | 39.33198 | 67.59977 | 31928 ft | 478 kts | 281° |
| 2026-04-29 11:12 | 39.34596 | 67.51563 | 31940 ft | 478 kts | 281° |
| 2026-04-29 11:12 | 39.36484 | 67.43378 | 31933 ft | 480 kts | 291° |
| 2026-04-29 11:13 | 39.39149 | 67.35442 | 31938 ft | 481 kts | 292° |
| 2026-04-29 11:13 | 39.41775 | 67.27484 | 31939 ft | 481 kts | 291° |
| 2026-04-29 11:14 | 39.44523 | 67.19574 | 31936 ft | 482 kts | 294° |
| 2026-04-29 11:14 | 39.47503 | 67.11801 | 31935 ft | 482 kts | 295° |
| 2026-04-29 11:15 | 39.50500 | 67.04015 | 31941 ft | 483 kts | 294° |
| 2026-04-29 11:15 | 39.53468 | 66.96197 | 31934 ft | 483 kts | 294° |
| 2026-04-29 11:16 | 39.56416 | 66.88379 | 31940 ft | 483 kts | 294° |
| 2026-04-29 11:16 | 39.59362 | 66.80544 | 31934 ft | 484 kts | 294° |
| 2026-04-29 11:17 | 39.62293 | 66.72728 | 31939 ft | 483 kts | 294° |
| 2026-04-29 11:17 | 39.65235 | 66.64867 | 31932 ft | 484 kts | 294° |
| 2026-04-29 11:18 | 39.68172 | 66.56993 | 31932 ft | 484 kts | 294° |
| 2026-04-29 11:18 | 39.71105 | 66.49115 | 31939 ft | 485 kts | 294° |
| 2026-04-29 11:19 | 39.73547 | 66.41060 | 31948 ft | 481 kts | 282° |
| 2026-04-29 11:19 | 39.74607 | 66.32518 | 31929 ft | 478 kts | 271° |
| 2026-04-29 11:20 | 39.74785 | 66.23882 | 31930 ft | 478 kts | 270° |
| 2026-04-29 11:20 | 39.74910 | 66.16701 | 31931 ft | 479 kts | 270° |
| 2026-04-29 11:21 | 39.75095 | 66.08040 | 31922 ft | 479 kts | 270° |
| 2026-04-29 11:21 | 39.75298 | 65.99395 | 31918 ft | 478 kts | 270° |
| 2026-04-29 11:22 | 39.75495 | 65.90758 | 31920 ft | 478 kts | 270° |
| 2026-04-29 11:22 | 39.75682 | 65.82112 | 31916 ft | 479 kts | 270° |
| 2026-04-29 11:23 | 39.75865 | 65.73463 | 31916 ft | 479 kts | 270° |
| 2026-04-29 11:23 | 39.76038 | 65.64811 | 31913 ft | 479 kts | 270° |
| 2026-04-29 11:24 | 39.76187 | 65.56151 | 31909 ft | 479 kts | 269° |
| 2026-04-29 11:24 | 39.76327 | 65.47498 | 31906 ft | 479 kts | 269° |
| 2026-04-29 11:25 | 39.76461 | 65.38890 | 31909 ft | 479 kts | 269° |
| 2026-04-29 11:25 | 39.76590 | 65.30223 | 31907 ft | 479 kts | 269° |
| 2026-04-29 11:26 | 39.76772 | 65.17270 | 31908 ft | 479 kts | 269° |
| 2026-04-29 11:26 | 39.76885 | 65.08614 | 31904 ft | 479 kts | 269° |
| 2026-04-29 11:27 | 39.76994 | 64.99954 | 31896 ft | 479 kts | 269° |
| 2026-04-29 11:27 | 39.77095 | 64.91279 | 31896 ft | 480 kts | 269° |
| 2026-04-29 11:28 | 39.77190 | 64.82609 | 31898 ft | 479 kts | 269° |
| 2026-04-29 11:28 | 39.77276 | 64.73995 | 31891 ft | 479 kts | 269° |
| 2026-04-29 11:29 | 39.77358 | 64.65323 | 31886 ft | 480 kts | 269° |
| 2026-04-29 11:29 | 39.77433 | 64.56661 | 31891 ft | 479 kts | 268° |
| 2026-04-29 11:30 | 39.77504 | 64.47985 | 31888 ft | 479 kts | 268° |
| 2026-04-29 11:30 | 39.77797 | 64.39309 | 31891 ft | 480 kts | 271° |
| 2026-04-29 11:31 | 39.78256 | 64.30642 | 31889 ft | 480 kts | 271° |
| 2026-04-29 11:31 | 39.78682 | 64.22030 | 31891 ft | 480 kts | 271° |
| 2026-04-29 11:32 | 39.79070 | 64.13341 | 31886 ft | 480 kts | 271° |
| 2026-04-29 11:32 | 39.79439 | 64.04679 | 31888 ft | 480 kts | 270° |
| 2026-04-29 11:33 | 39.79803 | 63.96007 | 31889 ft | 480 kts | 270° |
| 2026-04-29 11:33 | 39.80163 | 63.87340 | 31889 ft | 480 kts | 270° |
| 2026-04-29 11:34 | 39.80511 | 63.78723 | 31889 ft | 480 kts | 270° |
| 2026-04-29 11:34 | 39.80859 | 63.70045 | 31889 ft | 480 kts | 270° |
| 2026-04-29 11:35 | 39.81199 | 63.61373 | 31889 ft | 480 kts | 270° |
| 2026-04-29 11:35 | 39.81532 | 63.52708 | 31892 ft | 480 kts | 270° |
| 2026-04-29 11:36 | 39.81858 | 63.44036 | 31896 ft | 480 kts | 270° |
| 2026-04-29 11:36 | 39.82180 | 63.35369 | 31900 ft | 480 kts | 270° |
| 2026-04-29 11:37 | 39.82494 | 63.26695 | 31900 ft | 480 kts | 271° |
| 2026-04-29 11:37 | 39.82805 | 63.18025 | 31896 ft | 480 kts | 271° |
| 2026-04-29 11:38 | 39.83118 | 63.09354 | 31905 ft | 480 kts | 271° |
| 2026-04-29 11:38 | 39.83424 | 63.00739 | 31895 ft | 479 kts | 271° |
| 2026-04-29 11:39 | 39.83721 | 62.92075 | 31898 ft | 479 kts | 271° |
| 2026-04-29 11:39 | 39.84014 | 62.83412 | 31899 ft | 479 kts | 271° |
| 2026-04-29 11:40 | 39.84299 | 62.74732 | 31902 ft | 480 kts | 271° |
| 2026-04-29 11:40 | 39.84544 | 62.66053 | 31898 ft | 479 kts | 270° |
| 2026-04-29 11:41 | 39.84760 | 62.57381 | 31905 ft | 480 kts | 270° |
| 2026-04-29 11:41 | 39.84974 | 62.48685 | 31895 ft | 480 kts | 270° |
| 2026-04-29 11:42 | 39.85187 | 62.40002 | 31896 ft | 479 kts | 270° |
| 2026-04-29 11:42 | 39.85391 | 62.31386 | 31897 ft | 479 kts | 270° |
| 2026-04-29 11:43 | 39.85592 | 62.22686 | 31907 ft | 480 kts | 270° |
| 2026-04-29 11:43 | 39.85782 | 62.13974 | 31902 ft | 480 kts | 270° |
| 2026-04-29 11:44 | 39.85969 | 62.05284 | 31895 ft | 480 kts | 270° |
| 2026-04-29 11:44 | 39.86148 | 61.96647 | 31899 ft | 480 kts | 270° |
| 2026-04-29 11:45 | 39.86325 | 61.87956 | 31897 ft | 480 kts | 270° |
| 2026-04-29 11:45 | 39.86491 | 61.79261 | 31902 ft | 480 kts | 270° |
| 2026-04-29 11:46 | 39.86652 | 61.70573 | 31913 ft | 480 kts | 270° |
| 2026-04-29 11:46 | 39.86807 | 61.61902 | 31904 ft | 480 kts | 270° |
| 2026-04-29 11:47 | 39.86953 | 61.53215 | 31908 ft | 479 kts | 270° |
| 2026-04-29 11:47 | 39.87094 | 61.44605 | 31908 ft | 479 kts | 270° |
| 2026-04-29 11:48 | 39.87232 | 61.35946 | 31913 ft | 478 kts | 270° |
| 2026-04-29 11:48 | 39.87433 | 61.27290 | 31909 ft | 479 kts | 271° |
| 2026-04-29 11:49 | 39.87662 | 61.18622 | 31911 ft | 478 kts | 271° |
| 2026-04-29 11:49 | 39.87880 | 61.09963 | 31918 ft | 478 kts | 271° |
| 2026-04-29 11:50 | 39.88083 | 61.01304 | 31919 ft | 477 kts | 271° |
| 2026-04-29 11:50 | 39.88274 | 60.92669 | 31918 ft | 477 kts | 271° |
| 2026-04-29 11:51 | 39.88457 | 60.84083 | 31919 ft | 477 kts | 271° |
| 2026-04-29 11:51 | 39.88641 | 60.75434 | 31913 ft | 478 kts | 271° |
| 2026-04-29 11:52 | 39.88812 | 60.66757 | 31920 ft | 478 kts | 271° |
| 2026-04-29 11:52 | 39.88977 | 60.58145 | 31926 ft | 478 kts | 271° |
| 2026-04-29 11:53 | 39.89138 | 60.49488 | 31928 ft | 478 kts | 271° |
| 2026-04-29 11:53 | 39.89292 | 60.40841 | 31916 ft | 477 kts | 271° |
| 2026-04-29 11:54 | 39.89441 | 60.32188 | 31925 ft | 478 kts | 271° |
| 2026-04-29 11:54 | 39.89570 | 60.23519 | 31924 ft | 479 kts | 271° |
| 2026-04-29 11:55 | 39.89657 | 60.14837 | 31927 ft | 479 kts | 271° |
| 2026-04-29 11:55 | 39.89737 | 60.06149 | 31927 ft | 479 kts | 271° |
| 2026-04-29 11:56 | 39.89818 | 59.97533 | 31927 ft | 478 kts | 271° |
| 2026-04-29 11:56 | 39.89891 | 59.88856 | 31928 ft | 479 kts | 271° |
| 2026-04-29 11:57 | 39.89957 | 59.80188 | 31927 ft | 478 kts | 270° |
| 2026-04-29 11:57 | 39.90019 | 59.71509 | 31934 ft | 479 kts | 270° |
| 2026-04-29 11:58 | 39.90074 | 59.62838 | 31923 ft | 479 kts | 270° |
| 2026-04-29 11:58 | 39.90121 | 59.54228 | 31929 ft | 478 kts | 270° |
| 2026-04-29 11:59 | 39.90163 | 59.45553 | 31945 ft | 478 kts | 270° |
| 2026-04-29 11:59 | 39.90199 | 59.36900 | 31941 ft | 477 kts | 270° |
| 2026-04-29 12:00 | 39.90212 | 59.28263 | 31946 ft | 476 kts | 270° |
| 2026-04-29 12:00 | 39.90207 | 59.19629 | 31939 ft | 477 kts | 270° |
| 2026-04-29 12:01 | 39.90203 | 59.11035 | 31945 ft | 477 kts | 270° |
| 2026-04-29 12:01 | 39.90183 | 59.02394 | 31943 ft | 477 kts | 269° |
| 2026-04-29 12:02 | 39.90140 | 58.93755 | 31946 ft | 477 kts | 269° |
| 2026-04-29 12:02 | 39.90090 | 58.85108 | 31952 ft | 477 kts | 269° |
| 2026-04-29 12:03 | 39.90037 | 58.76462 | 31954 ft | 477 kts | 269° |
| 2026-04-29 12:03 | 39.89977 | 58.67812 | 31953 ft | 477 kts | 269° |
| 2026-04-29 12:04 | 39.89915 | 58.59229 | 31954 ft | 477 kts | 269° |
| 2026-04-29 12:04 | 39.89845 | 58.50575 | 31953 ft | 478 kts | 269° |
| 2026-04-29 12:05 | 39.89766 | 58.41915 | 31956 ft | 477 kts | 269° |
| 2026-04-29 12:05 | 39.89683 | 58.33305 | 31953 ft | 477 kts | 269° |
| 2026-04-29 12:06 | 39.89592 | 58.24646 | 31954 ft | 477 kts | 269° |
| 2026-04-29 12:06 | 39.89513 | 58.17455 | 31954 ft | 477 kts | 269° |
| 2026-04-29 12:07 | 39.89419 | 58.07368 | 31952 ft | 477 kts | 269° |
| 2026-04-29 12:07 | 39.89362 | 58.00172 | 31954 ft | 477 kts | 269° |
| 2026-04-29 12:08 | 39.89290 | 57.91506 | 31954 ft | 477 kts | 269° |
| 2026-04-29 12:08 | 39.89211 | 57.82851 | 31953 ft | 477 kts | 269° |
| 2026-04-29 12:09 | 39.89120 | 57.74242 | 31955 ft | 477 kts | 269° |
| 2026-04-29 12:09 | 39.89019 | 57.65570 | 31953 ft | 478 kts | 269° |
| 2026-04-29 12:10 | 39.88919 | 57.56912 | 31955 ft | 477 kts | 268° |
| 2026-04-29 12:10 | 39.88807 | 57.48299 | 31953 ft | 477 kts | 268° |
| 2026-04-29 12:11 | 39.88693 | 57.39692 | 31953 ft | 477 kts | 268° |
| 2026-04-29 12:11 | 39.88570 | 57.31069 | 31955 ft | 477 kts | 268° |
| 2026-04-29 12:12 | 39.88441 | 57.22420 | 31967 ft | 476 kts | 268° |
| 2026-04-29 12:12 | 39.88308 | 57.13833 | 31974 ft | 476 kts | 268° |
| 2026-04-29 12:13 | 39.88166 | 57.05213 | 31974 ft | 476 kts | 267° |
| 2026-04-29 12:13 | 39.88018 | 56.96564 | 31978 ft | 474 kts | 266° |
| 2026-04-29 12:14 | 39.87862 | 56.87982 | 31974 ft | 478 kts | 266° |
| 2026-04-29 12:14 | 39.87702 | 56.79316 | 31969 ft | 478 kts | 266° |
| 2026-04-29 12:15 | 39.87535 | 56.70669 | 31980 ft | 477 kts | 265° |
| 2026-04-29 12:15 | 39.87362 | 56.62077 | 31992 ft | 477 kts | 265° |
| 2026-04-29 12:16 | 39.87180 | 56.53427 | 31988 ft | 477 kts | 265° |
| 2026-04-29 12:16 | 39.86996 | 56.44837 | 31993 ft | 477 kts | 265° |
| 2026-04-29 12:17 | 39.86804 | 56.36194 | 31993 ft | 477 kts | 265° |
| 2026-04-29 12:17 | 39.86607 | 56.27587 | 31992 ft | 477 kts | 265° |
| 2026-04-29 12:18 | 39.86404 | 56.18985 | 31999 ft | 476 kts | 265° |
| 2026-04-29 12:18 | 39.86199 | 56.10345 | 32002 ft | 477 kts | 265° |
| 2026-04-29 12:19 | 39.85992 | 56.01740 | 32000 ft | 477 kts | 265° |
| 2026-04-29 12:19 | 39.85774 | 55.93083 | 31999 ft | 476 kts | 265° |
| 2026-04-29 12:20 | 39.85551 | 55.84464 | 32001 ft | 476 kts | 265° |
| 2026-04-29 12:20 | 39.85323 | 55.75861 | 32001 ft | 476 kts | 264° |
| 2026-04-29 12:21 | 39.85094 | 55.67251 | 32000 ft | 476 kts | 264° |
| 2026-04-29 12:21 | 39.84852 | 55.58669 | 32001 ft | 476 kts | 264° |
| 2026-04-29 12:22 | 39.84605 | 55.50032 | 32002 ft | 476 kts | 264° |
| 2026-04-29 12:22 | 39.84353 | 55.41445 | 32010 ft | 476 kts | 264° |
| 2026-04-29 12:23 | 39.84093 | 55.32825 | 32017 ft | 475 kts | 264° |
| 2026-04-29 12:23 | 39.83825 | 55.24223 | 32030 ft | 475 kts | 264° |
| 2026-04-29 12:24 | 39.83556 | 55.15661 | 32028 ft | 476 kts | 264° |
| 2026-04-29 12:24 | 39.83279 | 55.07094 | 32028 ft | 476 kts | 264° |
| 2026-04-29 12:25 | 39.83005 | 54.98476 | 32030 ft | 476 kts | 264° |
| 2026-04-29 12:26 | 39.82605 | 54.85582 | 32025 ft | 476 kts | 264° |
| 2026-04-29 12:26 | 39.82671 | 54.76935 | 32034 ft | 480 kts | 272° |
| 2026-04-29 12:27 | 39.83873 | 54.68395 | 32026 ft | 485 kts | 282° |
| 2026-04-29 12:27 | 39.85757 | 54.59935 | 32032 ft | 486 kts | 282° |
| 2026-04-29 12:28 | 39.87613 | 54.51453 | 32026 ft | 486 kts | 282° |
| 2026-04-29 12:28 | 39.89275 | 54.42969 | 32031 ft | 483 kts | 276° |
| 2026-04-29 12:29 | 39.90242 | 54.34292 | 32024 ft | 483 kts | 274° |
| 2026-04-29 12:29 | 39.91136 | 54.25654 | 32026 ft | 483 kts | 274° |
| 2026-04-29 12:30 | 39.92057 | 54.16976 | 32015 ft | 483 kts | 274° |
| 2026-04-29 12:30 | 39.92984 | 54.08337 | 32020 ft | 483 kts | 274° |
| 2026-04-29 12:31 | 39.93917 | 53.99630 | 32016 ft | 484 kts | 274° |
| 2026-04-29 12:31 | 39.94843 | 53.90928 | 32014 ft | 484 kts | 274° |
| 2026-04-29 12:32 | 39.95756 | 53.82290 | 32021 ft | 483 kts | 274° |
| 2026-04-29 12:32 | 39.96670 | 53.73572 | 32015 ft | 483 kts | 274° |
| 2026-04-29 12:33 | 39.97565 | 53.64952 | 32020 ft | 482 kts | 274° |
| 2026-04-29 12:33 | 39.98462 | 53.56267 | 32019 ft | 482 kts | 274° |
| 2026-04-29 12:34 | 39.99351 | 53.47596 | 32019 ft | 482 kts | 274° |
| 2026-04-29 12:34 | 40.00227 | 53.38977 | 32019 ft | 481 kts | 274° |
| 2026-04-29 12:35 | 40.01102 | 53.30299 | 32019 ft | 482 kts | 273° |
| 2026-04-29 12:35 | 40.01975 | 53.21600 | 32023 ft | 483 kts | 273° |
| 2026-04-29 12:36 | 40.02833 | 53.12951 | 32017 ft | 482 kts | 273° |
| 2026-04-29 12:36 | 40.03691 | 53.04272 | 32018 ft | 482 kts | 273° |
| 2026-04-29 12:37 | 40.04801 | 52.95620 | 32019 ft | 484 kts | 277° |
| 2026-04-29 12:37 | 40.06192 | 52.87030 | 32021 ft | 485 kts | 277° |
| 2026-04-29 12:38 | 40.07596 | 52.78396 | 32019 ft | 484 kts | 277° |
| 2026-04-29 12:38 | 40.08958 | 52.69814 | 32018 ft | 484 kts | 277° |
| 2026-04-29 12:39 | 40.10310 | 52.61170 | 32019 ft | 484 kts | 277° |
| 2026-04-29 12:39 | 40.11643 | 52.52595 | 32020 ft | 484 kts | 276° |
| 2026-04-29 12:40 | 40.12979 | 52.43976 | 32029 ft | 484 kts | 276° |
| 2026-04-29 12:40 | 40.14305 | 52.35357 | 32028 ft | 484 kts | 276° |
| 2026-04-29 12:41 | 40.15630 | 52.26715 | 32028 ft | 484 kts | 276° |
| 2026-04-29 12:41 | 40.16945 | 52.18092 | 32028 ft | 483 kts | 276° |
| 2026-04-29 12:42 | 40.18254 | 52.09463 | 32029 ft | 484 kts | 276° |
| 2026-04-29 12:42 | 40.19551 | 52.00870 | 32030 ft | 484 kts | 276° |
| 2026-04-29 12:43 | 40.20848 | 51.92231 | 32039 ft | 484 kts | 276° |
| 2026-04-29 12:43 | 40.22137 | 51.83589 | 32037 ft | 484 kts | 276° |
| 2026-04-29 12:44 | 40.23422 | 51.74946 | 32038 ft | 484 kts | 276° |
| 2026-04-29 12:44 | 40.24696 | 51.66302 | 32047 ft | 483 kts | 276° |
| 2026-04-29 12:45 | 40.25956 | 51.57726 | 32046 ft | 483 kts | 276° |
| 2026-04-29 12:45 | 40.27223 | 51.49073 | 32058 ft | 483 kts | 276° |
| 2026-04-29 12:46 | 40.28482 | 51.40423 | 32055 ft | 482 kts | 276° |
| 2026-04-29 12:46 | 40.29731 | 51.31795 | 32059 ft | 482 kts | 276° |
| 2026-04-29 12:47 | 40.30975 | 51.23170 | 32066 ft | 481 kts | 276° |
| 2026-04-29 12:47 | 40.32212 | 51.14545 | 32064 ft | 481 kts | 276° |
| 2026-04-29 12:48 | 40.33429 | 51.05985 | 32065 ft | 481 kts | 276° |
| 2026-04-29 12:48 | 40.34649 | 50.97377 | 32065 ft | 480 kts | 276° |
| 2026-04-29 12:49 | 40.35865 | 50.88768 | 32072 ft | 480 kts | 276° |
| 2026-04-29 12:49 | 40.37069 | 50.80169 | 32074 ft | 478 kts | 275° |
| 2026-04-29 12:50 | 40.38266 | 50.71578 | 32074 ft | 478 kts | 276° |
| 2026-04-29 12:50 | 40.39461 | 50.62993 | 32073 ft | 477 kts | 275° |
| 2026-04-29 12:51 | 40.40637 | 50.54421 | 32075 ft | 477 kts | 275° |
| 2026-04-29 12:51 | 40.41795 | 50.45952 | 32073 ft | 476 kts | 275° |
| 2026-04-29 12:52 | 40.42961 | 50.37400 | 32075 ft | 476 kts | 275° |
| 2026-04-29 12:52 | 40.44121 | 50.28846 | 32073 ft | 475 kts | 275° |
| 2026-04-29 12:53 | 40.45076 | 50.21744 | 32073 ft | 475 kts | 275° |
| 2026-04-29 12:53 | 40.46221 | 50.13199 | 32074 ft | 474 kts | 275° |
| 2026-04-29 12:54 | 40.47335 | 50.04651 | 32076 ft | 473 kts | 273° |
| 2026-04-29 12:54 | 40.47900 | 49.96132 | 32078 ft | 471 kts | 270° |
| 2026-04-29 12:55 | 40.48372 | 49.87542 | 32077 ft | 471 kts | 270° |
| 2026-04-29 12:55 | 40.48860 | 49.78955 | 32069 ft | 471 kts | 270° |
| 2026-04-29 12:56 | 40.49362 | 49.70369 | 32074 ft | 471 kts | 270° |
| 2026-04-29 12:56 | 40.49858 | 49.61785 | 32074 ft | 471 kts | 270° |
| 2026-04-29 12:57 | 40.50347 | 49.53191 | 32074 ft | 472 kts | 270° |
| 2026-04-29 12:57 | 40.50831 | 49.44593 | 32077 ft | 472 kts | 270° |
| 2026-04-29 12:58 | 40.51306 | 49.35990 | 32073 ft | 472 kts | 270° |
| 2026-04-29 12:58 | 40.51776 | 49.27440 | 32080 ft | 472 kts | 270° |
| 2026-04-29 12:59 | 40.52248 | 49.18825 | 32071 ft | 472 kts | 270° |
| 2026-04-29 12:59 | 40.52714 | 49.10216 | 32064 ft | 472 kts | 270° |
| 2026-04-29 13:00 | 40.53170 | 49.01599 | 32064 ft | 472 kts | 270° |
| 2026-04-29 13:00 | 40.53623 | 48.92972 | 32068 ft | 473 kts | 270° |
| 2026-04-29 13:01 | 40.54069 | 48.84344 | 32061 ft | 473 kts | 270° |
| 2026-04-29 13:01 | 40.54507 | 48.75721 | 32060 ft | 472 kts | 270° |
| 2026-04-29 13:02 | 40.54936 | 48.67154 | 32066 ft | 472 kts | 270° |
| 2026-04-29 13:02 | 40.55362 | 48.58517 | 32061 ft | 472 kts | 271° |
| 2026-04-29 13:03 | 40.55782 | 48.49906 | 32070 ft | 472 kts | 271° |
| 2026-04-29 13:03 | 40.56194 | 48.41276 | 32062 ft | 472 kts | 270° |
| 2026-04-29 13:04 | 40.56597 | 48.32715 | 32064 ft | 472 kts | 271° |
| 2026-04-29 13:04 | 40.56998 | 48.24096 | 32068 ft | 472 kts | 271° |
| 2026-04-29 13:05 | 40.57391 | 48.15466 | 32066 ft | 472 kts | 270° |
| 2026-04-29 13:05 | 40.57776 | 48.06867 | 32060 ft | 471 kts | 271° |
| 2026-04-29 13:06 | 40.58160 | 47.98252 | 32078 ft | 471 kts | 270° |
| 2026-04-29 13:06 | 40.58505 | 47.89653 | 32074 ft | 470 kts | 270° |
| 2026-04-29 13:07 | 40.58787 | 47.81061 | 32072 ft | 470 kts | 270° |
| 2026-04-29 13:07 | 40.59060 | 47.72467 | 32076 ft | 470 kts | 270° |
| 2026-04-29 13:08 | 40.59334 | 47.63871 | 32072 ft | 470 kts | 270° |
| 2026-04-29 13:08 | 40.59606 | 47.55268 | 32074 ft | 470 kts | 270° |
| 2026-04-29 13:09 | 40.59869 | 47.46705 | 32075 ft | 471 kts | 270° |
| 2026-04-29 13:09 | 40.60128 | 47.38090 | 32073 ft | 471 kts | 270° |
| 2026-04-29 13:10 | 40.60383 | 47.29473 | 32074 ft | 471 kts | 270° |
| 2026-04-29 13:10 | 40.60629 | 47.20848 | 32073 ft | 471 kts | 270° |
| 2026-04-29 13:11 | 40.61254 | 47.12241 | 32074 ft | 473 kts | 275° |
| 2026-04-29 13:11 | 40.62171 | 47.03650 | 32074 ft | 474 kts | 275° |
| 2026-04-29 13:12 | 40.63081 | 46.95064 | 32073 ft | 473 kts | 275° |
| 2026-04-29 13:12 | 40.63963 | 46.86469 | 32075 ft | 473 kts | 275° |
| 2026-04-29 13:13 | 40.64825 | 46.77920 | 32075 ft | 473 kts | 275° |
| 2026-04-29 13:13 | 40.65680 | 46.69325 | 32076 ft | 473 kts | 275° |
| 2026-04-29 13:14 | 40.66534 | 46.60702 | 32073 ft | 473 kts | 275° |
| 2026-04-29 13:14 | 40.67377 | 46.52132 | 32074 ft | 473 kts | 275° |
| 2026-04-29 13:15 | 40.68218 | 46.43520 | 32074 ft | 473 kts | 275° |
| 2026-04-29 13:15 | 40.69046 | 46.34964 | 32075 ft | 474 kts | 275° |
| 2026-04-29 13:16 | 40.69872 | 46.26353 | 32073 ft | 474 kts | 275° |
| 2026-04-29 13:16 | 40.70694 | 46.17732 | 32073 ft | 473 kts | 275° |
| 2026-04-29 13:17 | 40.71509 | 46.09111 | 32073 ft | 473 kts | 275° |
| 2026-04-29 13:17 | 40.72319 | 46.00473 | 32077 ft | 474 kts | 274° |
| 2026-04-29 13:18 | 40.73115 | 45.91915 | 32072 ft | 473 kts | 275° |
| 2026-04-29 13:18 | 40.73909 | 45.83316 | 32073 ft | 472 kts | 274° |
| 2026-04-29 13:19 | 40.74695 | 45.74721 | 32074 ft | 472 kts | 274° |
| 2026-04-29 13:19 | 40.75475 | 45.66105 | 32073 ft | 473 kts | 274° |
| 2026-04-29 13:20 | 40.76250 | 45.57499 | 32064 ft | 472 kts | 274° |
| 2026-04-29 13:20 | 40.76987 | 45.48888 | 32070 ft | 471 kts | 272° |
| 2026-04-29 13:21 | 40.77412 | 45.40263 | 32057 ft | 471 kts | 271° |
| 2026-04-29 13:21 | 40.77772 | 45.31646 | 32051 ft | 470 kts | 271° |
| 2026-04-29 13:22 | 40.78139 | 45.23008 | 32052 ft | 471 kts | 271° |
| 2026-04-29 13:22 | 40.78516 | 45.14391 | 32047 ft | 470 kts | 271° |
| 2026-04-29 13:23 | 40.78890 | 45.05829 | 32038 ft | 470 kts | 271° |
| 2026-04-29 13:23 | 40.79258 | 44.97215 | 32040 ft | 470 kts | 271° |
| 2026-04-29 13:24 | 40.79615 | 44.88593 | 32023 ft | 470 kts | 271° |
| 2026-04-29 13:24 | 40.79970 | 44.79963 | 32019 ft | 470 kts | 271° |
| 2026-04-29 13:25 | 40.80316 | 44.71355 | 32013 ft | 471 kts | 271° |
| 2026-04-29 13:25 | 40.80826 | 44.58422 | 32016 ft | 469 kts | 271° |
| 2026-04-29 13:26 | 40.81160 | 44.49798 | 32003 ft | 469 kts | 271° |
| 2026-04-29 13:26 | 40.81481 | 44.41237 | 32015 ft | 469 kts | 271° |
| 2026-04-29 13:27 | 40.81798 | 44.32618 | 32033 ft | 469 kts | 271° |
| 2026-04-29 13:27 | 40.82109 | 44.24007 | 32021 ft | 469 kts | 270° |
| 2026-04-29 13:28 | 40.82411 | 44.15449 | 32017 ft | 469 kts | 270° |
| 2026-04-29 13:28 | 40.82712 | 44.06848 | 32017 ft | 468 kts | 270° |
| 2026-04-29 13:29 | 40.83004 | 43.98249 | 32020 ft | 468 kts | 270° |
| 2026-04-29 13:29 | 40.83290 | 43.89665 | 32020 ft | 467 kts | 270° |
| 2026-04-29 13:30 | 40.83571 | 43.81094 | 32018 ft | 467 kts | 270° |
| 2026-04-29 13:30 | 40.83864 | 43.72561 | 32019 ft | 467 kts | 270° |
| 2026-04-29 13:31 | 40.84195 | 43.63983 | 32020 ft | 468 kts | 272° |
| 2026-04-29 13:31 | 40.84685 | 43.55412 | 32026 ft | 468 kts | 272° |
| 2026-04-29 13:32 | 40.85195 | 43.46836 | 32029 ft | 467 kts | 272° |
| 2026-04-29 13:32 | 40.85680 | 43.38271 | 32029 ft | 467 kts | 272° |
| 2026-04-29 13:33 | 40.86142 | 43.29767 | 32026 ft | 467 kts | 272° |
| 2026-04-29 13:33 | 40.86595 | 43.21216 | 32028 ft | 467 kts | 272° |
| 2026-04-29 13:34 | 40.87041 | 43.12647 | 32029 ft | 466 kts | 271° |
| 2026-04-29 13:34 | 40.87482 | 43.04116 | 32032 ft | 466 kts | 271° |
| 2026-04-29 13:35 | 40.87918 | 42.95562 | 32023 ft | 466 kts | 271° |
| 2026-04-29 13:35 | 40.88342 | 42.87045 | 32029 ft | 466 kts | 271° |
| 2026-04-29 13:36 | 40.88767 | 42.78471 | 32119 ft | 469 kts | 271° |
| 2026-04-29 13:36 | 40.88978 | 42.74157 | 32440 ft | 469 kts | 271° |
| 2026-04-29 13:36 | 40.89187 | 42.69872 | 32858 ft | 466 kts | 271° |
| 2026-04-29 13:37 | 40.89393 | 42.65602 | 33271 ft | 463 kts | 271° |
| 2026-04-29 13:37 | 40.89593 | 42.61413 | 33630 ft | 462 kts | 271° |
| 2026-04-29 13:37 | 40.89792 | 42.57176 | 33903 ft | 462 kts | 271° |
| 2026-04-29 13:37 | 40.89992 | 42.52923 | 33975 ft | 463 kts | 271° |
| 2026-04-29 13:38 | 40.90386 | 42.44438 | 34058 ft | 463 kts | 271° |
| 2026-04-29 13:38 | 40.90714 | 42.37329 | 34064 ft | 462 kts | 271° |
| 2026-04-29 13:39 | 40.91094 | 42.28902 | 34077 ft | 461 kts | 271° |
| 2026-04-29 13:39 | 40.91468 | 42.20436 | 34094 ft | 461 kts | 271° |
| 2026-04-29 13:40 | 40.91835 | 42.11962 | 34095 ft | 461 kts | 271° |
| 2026-04-29 13:40 | 40.92203 | 42.03482 | 34096 ft | 461 kts | 271° |
| 2026-04-29 13:41 | 40.92559 | 41.95012 | 34093 ft | 461 kts | 271° |
| 2026-04-29 13:41 | 40.92906 | 41.86609 | 34110 ft | 460 kts | 271° |
| 2026-04-29 13:42 | 40.93251 | 41.78158 | 34111 ft | 460 kts | 270° |
| 2026-04-29 13:42 | 40.93586 | 41.69707 | 34115 ft | 460 kts | 270° |
| 2026-04-29 13:43 | 40.93920 | 41.61265 | 34119 ft | 460 kts | 270° |
| 2026-04-29 13:43 | 40.94242 | 41.52815 | 34128 ft | 460 kts | 271° |
| 2026-04-29 13:44 | 40.94562 | 41.44357 | 34131 ft | 459 kts | 270° |
| 2026-04-29 13:44 | 40.94874 | 41.35964 | 34145 ft | 459 kts | 270° |
| 2026-04-29 13:45 | 40.95181 | 41.27503 | 34161 ft | 459 kts | 270° |
| 2026-04-29 13:45 | 40.95478 | 41.19117 | 34163 ft | 460 kts | 270° |
| 2026-04-29 13:46 | 40.95773 | 41.10647 | 34155 ft | 459 kts | 270° |
| 2026-04-29 13:46 | 40.96062 | 41.02206 | 34162 ft | 459 kts | 270° |
| 2026-04-29 13:47 | 40.96344 | 40.93772 | 34172 ft | 459 kts | 270° |
| 2026-04-29 13:47 | 40.96619 | 40.85339 | 34179 ft | 459 kts | 270° |
| 2026-04-29 13:48 | 40.96883 | 40.76904 | 34177 ft | 459 kts | 270° |
| 2026-04-29 13:48 | 40.97140 | 40.68463 | 34178 ft | 458 kts | 270° |
| 2026-04-29 13:49 | 40.97391 | 40.60084 | 34173 ft | 458 kts | 270° |
| 2026-04-29 13:49 | 40.97639 | 40.51660 | 34177 ft | 458 kts | 270° |
| 2026-04-29 13:50 | 40.97879 | 40.43230 | 34163 ft | 458 kts | 270° |
| 2026-04-29 13:50 | 40.98111 | 40.34798 | 34166 ft | 458 kts | 270° |
| 2026-04-29 13:51 | 40.98342 | 40.26416 | 34162 ft | 458 kts | 270° |
| 2026-04-29 13:51 | 40.98564 | 40.17986 | 34169 ft | 458 kts | 270° |
| 2026-04-29 13:52 | 40.98780 | 40.09551 | 34165 ft | 458 kts | 270° |
| 2026-04-29 13:52 | 40.98989 | 40.01111 | 34173 ft | 458 kts | 270° |
| 2026-04-29 13:53 | 40.99194 | 39.92723 | 34177 ft | 457 kts | 270° |
| 2026-04-29 13:53 | 40.99394 | 39.84324 | 34181 ft | 456 kts | 270° |
| 2026-04-29 13:54 | 40.99794 | 39.75948 | 34189 ft | 457 kts | 276° |
| 2026-04-29 13:54 | 41.00621 | 39.67589 | 34185 ft | 457 kts | 276° |
| 2026-04-29 13:55 | 41.01448 | 39.59290 | 34184 ft | 457 kts | 276° |
| 2026-04-29 13:55 | 41.02245 | 39.50926 | 34181 ft | 457 kts | 276° |
| 2026-04-29 13:56 | 41.03027 | 39.42621 | 34191 ft | 456 kts | 276° |
| 2026-04-29 13:56 | 41.03807 | 39.34264 | 34189 ft | 456 kts | 276° |
| 2026-04-29 13:57 | 41.04575 | 39.25957 | 34182 ft | 456 kts | 276° |
| 2026-04-29 13:57 | 41.05344 | 39.17609 | 34183 ft | 455 kts | 275° |
| 2026-04-29 13:58 | 41.06109 | 39.09278 | 34185 ft | 455 kts | 276° |
| 2026-04-29 13:58 | 41.06882 | 39.00990 | 34184 ft | 455 kts | 276° |
| 2026-04-29 13:59 | 41.07656 | 38.92644 | 34185 ft | 454 kts | 276° |
| 2026-04-29 13:59 | 41.08415 | 38.84379 | 34186 ft | 454 kts | 276° |
| 2026-04-29 14:00 | 41.09171 | 38.76063 | 34183 ft | 453 kts | 276° |
| 2026-04-29 14:00 | 41.09916 | 38.67740 | 34186 ft | 453 kts | 275° |
| 2026-04-29 14:01 | 41.10598 | 38.59468 | 34184 ft | 453 kts | 275° |
| 2026-04-29 14:01 | 41.11297 | 38.51136 | 34187 ft | 453 kts | 275° |
| 2026-04-29 14:02 | 41.11996 | 38.42886 | 34182 ft | 452 kts | 275° |
| 2026-04-29 14:02 | 41.12691 | 38.34589 | 34187 ft | 452 kts | 275° |
| 2026-04-29 14:03 | 41.13376 | 38.26283 | 34184 ft | 452 kts | 275° |
| 2026-04-29 14:03 | 41.14045 | 38.18016 | 34186 ft | 452 kts | 275° |
| 2026-04-29 14:04 | 41.14710 | 38.09769 | 34183 ft | 451 kts | 275° |
| 2026-04-29 14:04 | 41.15369 | 38.01501 | 34186 ft | 451 kts | 275° |
| 2026-04-29 14:05 | 41.16023 | 37.93212 | 34186 ft | 450 kts | 275° |
| 2026-04-29 14:05 | 41.16687 | 37.84927 | 34183 ft | 449 kts | 276° |
| 2026-04-29 14:06 | 41.17407 | 37.76741 | 34180 ft | 449 kts | 276° |
| 2026-04-29 14:06 | 41.18129 | 37.68492 | 34175 ft | 449 kts | 276° |
| 2026-04-29 14:07 | 41.18825 | 37.60235 | 34177 ft | 449 kts | 274° |
| 2026-04-29 14:07 | 41.19229 | 37.51985 | 34176 ft | 449 kts | 274° |
| 2026-04-29 14:08 | 41.19823 | 37.43701 | 34176 ft | 450 kts | 275° |
| 2026-04-29 14:08 | 41.20463 | 37.35428 | 34176 ft | 449 kts | 275° |
| 2026-04-29 14:09 | 41.21066 | 37.27195 | 34175 ft | 449 kts | 275° |
| 2026-04-29 14:09 | 41.21670 | 37.18920 | 34176 ft | 449 kts | 275° |
| 2026-04-29 14:10 | 41.22322 | 37.10707 | 34175 ft | 449 kts | 276° |
| 2026-04-29 14:10 | 41.22982 | 37.02434 | 34182 ft | 449 kts | 276° |
| 2026-04-29 14:11 | 41.23625 | 36.94209 | 34186 ft | 449 kts | 276° |
| 2026-04-29 14:11 | 41.24263 | 36.85928 | 34194 ft | 449 kts | 275° |
| 2026-04-29 14:12 | 41.24894 | 36.77663 | 34201 ft | 449 kts | 276° |
| 2026-04-29 14:12 | 41.25518 | 36.69406 | 34202 ft | 449 kts | 275° |
| 2026-04-29 14:13 | 41.26139 | 36.61138 | 34207 ft | 449 kts | 275° |
| 2026-04-29 14:13 | 41.27125 | 36.52992 | 34210 ft | 450 kts | 283° |
| 2026-04-29 14:14 | 41.29047 | 36.45076 | 34228 ft | 450 kts | 288° |
| 2026-04-29 14:14 | 41.31090 | 36.37202 | 34220 ft | 450 kts | 288° |
| 2026-04-29 14:15 | 41.33114 | 36.29297 | 34211 ft | 451 kts | 288° |
| 2026-04-29 14:15 | 41.35118 | 36.21387 | 34200 ft | 450 kts | 288° |
| 2026-04-29 14:16 | 41.37111 | 36.13477 | 34198 ft | 450 kts | 287° |
| 2026-04-29 14:16 | 41.39103 | 36.05544 | 34181 ft | 451 kts | 287° |
| 2026-04-29 14:17 | 41.41088 | 35.97613 | 34177 ft | 452 kts | 287° |
| 2026-04-29 14:17 | 41.43055 | 35.89730 | 34169 ft | 449 kts | 288° |
| 2026-04-29 14:18 | 41.45020 | 35.81826 | 34153 ft | 448 kts | 288° |
| 2026-04-29 14:18 | 41.46980 | 35.73915 | 34161 ft | 448 kts | 288° |
| 2026-04-29 14:19 | 41.48931 | 35.66020 | 34148 ft | 448 kts | 288° |
| 2026-04-29 14:19 | 41.50863 | 35.58173 | 34144 ft | 448 kts | 288° |
| 2026-04-29 14:20 | 41.52800 | 35.50279 | 34149 ft | 447 kts | 288° |
| 2026-04-29 14:20 | 41.54728 | 35.42394 | 34142 ft | 446 kts | 288° |
| 2026-04-29 14:21 | 41.56646 | 35.34521 | 34140 ft | 445 kts | 288° |
| 2026-04-29 14:21 | 41.58546 | 35.26693 | 34159 ft | 444 kts | 288° |
| 2026-04-29 14:22 | 41.60445 | 35.18850 | 34160 ft | 443 kts | 288° |
| 2026-04-29 14:22 | 41.62332 | 35.11025 | 34166 ft | 441 kts | 288° |
| 2026-04-29 14:23 | 41.63893 | 35.04532 | 34176 ft | 440 kts | 288° |
| 2026-04-29 14:23 | 41.66064 | 34.95475 | 34176 ft | 439 kts | 288° |
| 2026-04-29 14:24 | 41.67618 | 34.88964 | 34173 ft | 437 kts | 288° |
| 2026-04-29 14:24 | 41.69460 | 34.81229 | 34170 ft | 436 kts | 288° |
| 2026-04-29 14:25 | 41.71293 | 34.73512 | 34176 ft | 434 kts | 288° |
| 2026-04-29 14:25 | 41.73102 | 34.65856 | 34178 ft | 434 kts | 288° |
| 2026-04-29 14:26 | 41.74918 | 34.58154 | 34170 ft | 432 kts | 288° |
| 2026-04-29 14:26 | 41.76717 | 34.50493 | 34164 ft | 430 kts | 288° |
| 2026-04-29 14:27 | 41.78505 | 34.42845 | 34156 ft | 429 kts | 288° |
| 2026-04-29 14:28 | 41.81168 | 34.31407 | 34154 ft | 428 kts | 288° |
| 2026-04-29 14:28 | 41.82932 | 34.23799 | 34139 ft | 426 kts | 288° |
| 2026-04-29 14:29 | 41.84674 | 34.16258 | 34131 ft | 426 kts | 288° |
| 2026-04-29 14:29 | 41.86425 | 34.08654 | 34119 ft | 426 kts | 288° |
| 2026-04-29 14:30 | 41.88171 | 34.01047 | 34110 ft | 425 kts | 288° |
| 2026-04-29 14:30 | 41.89909 | 33.93462 | 34115 ft | 425 kts | 288° |
| 2026-04-29 14:31 | 41.91630 | 33.85898 | 34113 ft | 426 kts | 288° |
| 2026-04-29 14:31 | 41.93361 | 33.78290 | 34112 ft | 426 kts | 288° |
| 2026-04-29 14:32 | 41.94493 | 33.70474 | 34109 ft | 428 kts | 278° |
| 2026-04-29 14:32 | 41.94687 | 33.62459 | 34115 ft | 432 kts | 270° |
| 2026-04-29 14:33 | 41.94222 | 33.54460 | 34109 ft | 432 kts | 268° |
| 2026-04-29 14:33 | 41.93702 | 33.46397 | 34109 ft | 432 kts | 268° |
| 2026-04-29 14:34 | 41.93204 | 33.38392 | 34112 ft | 431 kts | 269° |
| 2026-04-29 14:34 | 41.92718 | 33.30358 | 34107 ft | 430 kts | 269° |
| 2026-04-29 14:35 | 41.92229 | 33.22373 | 34109 ft | 431 kts | 269° |
| 2026-04-29 14:35 | 41.91735 | 33.14346 | 34121 ft | 429 kts | 269° |
| 2026-04-29 14:36 | 41.91241 | 33.06396 | 34108 ft | 429 kts | 269° |
| 2026-04-29 14:36 | 41.90738 | 32.98422 | 34129 ft | 429 kts | 269° |
| 2026-04-29 14:37 | 41.90227 | 32.90432 | 34121 ft | 427 kts | 269° |
| 2026-04-29 14:37 | 41.89717 | 32.82524 | 34130 ft | 426 kts | 269° |
| 2026-04-29 14:38 | 41.89204 | 32.74635 | 34130 ft | 426 kts | 269° |
| 2026-04-29 14:38 | 41.88683 | 32.66712 | 34129 ft | 425 kts | 269° |
| 2026-04-29 14:39 | 41.88163 | 32.58870 | 34136 ft | 423 kts | 269° |
| 2026-04-29 14:39 | 41.87715 | 32.50996 | 34137 ft | 419 kts | 274° |
| 2026-04-29 14:40 | 41.88251 | 32.43238 | 34146 ft | 415 kts | 281° |
| 2026-04-29 14:40 | 41.89658 | 32.35761 | 34150 ft | 412 kts | 289° |